createdAt,value
2023-03-18T00:00:15.705Z,79.00
2023-03-18T00:02:42.613Z,79.70
2023-03-18T00:05:10.540Z,79.90
2023-03-18T00:07:37.510Z,80.20
2023-03-18T00:10:05.808Z,80.00
2023-03-18T00:12:33.282Z,79.20
2023-03-18T00:15:01.114Z,79.50
2023-03-18T00:17:28.086Z,78.90
2023-03-18T00:19:55.302Z,78.90
2023-03-18T00:22:22.761Z,78.90
2023-03-18T00:24:49.651Z,79.00
2023-03-18T00:27:16.476Z,78.70
2023-03-18T00:29:43.934Z,79.00
2023-03-18T00:32:11.217Z,78.80
2023-03-18T00:34:37.994Z,78.10
2023-03-18T00:37:05.199Z,78.90
2023-03-18T00:39:33.260Z,78.40
2023-03-18T00:42:02.066Z,78.90
2023-03-18T00:44:28.857Z,79.10
2023-03-18T00:46:55.768Z,79.10
2023-03-18T00:49:22.602Z,78.70
2023-03-18T00:51:49.671Z,78.40
2023-03-18T00:54:18.777Z,79.50
2023-03-18T00:56:45.820Z,79.10
2023-03-18T00:59:13.376Z,78.50
2023-03-18T01:01:40.406Z,78.90
2023-03-18T01:04:07.462Z,78.70
2023-03-18T01:06:35.249Z,78.50
2023-03-18T01:09:02.835Z,78.50
2023-03-18T01:11:29.945Z,78.40
2023-03-18T01:13:57.135Z,78.60
2023-03-18T01:16:24.360Z,77.70
2023-03-18T01:18:51.245Z,79.00
2023-03-18T01:21:18.131Z,78.20
2023-03-18T01:23:44.916Z,77.80
2023-03-18T01:26:12.633Z,78.00
2023-03-18T01:28:39.806Z,77.60
2023-03-18T01:31:08.314Z,78.00
2023-03-18T01:33:35.697Z,77.90
2023-03-18T01:36:04.105Z,77.90
2023-03-18T01:38:31.216Z,78.30
2023-03-18T01:40:59.061Z,78.10
2023-03-18T01:43:39.095Z,77.30
2023-03-18T01:46:29.798Z,77.60
2023-03-18T01:48:56.998Z,77.20
2023-03-18T01:51:25.505Z,77.20
2023-03-18T01:53:53.396Z,77.10
2023-03-18T01:56:20.983Z,77.00
2023-03-18T01:58:51.113Z,76.90
2023-03-18T02:01:20.937Z,77.50
2023-03-18T02:03:49.839Z,77.00
2023-03-18T02:06:17.035Z,76.90
2023-03-18T02:08:44.104Z,77.40
2023-03-18T02:11:11.937Z,77.00
2023-03-18T02:13:41.341Z,77.70
2023-03-18T02:16:13.077Z,77.00
2023-03-18T02:18:43.108Z,77.10
2023-03-18T02:21:20.976Z,76.60
2023-03-18T02:24:10.723Z,78.10
2023-03-18T02:26:45.549Z,77.90
2023-03-18T02:29:14.701Z,77.70
2023-03-18T02:31:42.425Z,78.00
2023-03-18T02:34:09.670Z,77.60
2023-03-18T02:36:36.805Z,76.90
2023-03-18T02:39:04.318Z,76.90
2023-03-18T02:41:32.590Z,77.20
2023-03-18T02:43:59.608Z,77.90
2023-03-18T02:46:31.082Z,78.00
2023-03-18T02:49:02.409Z,78.50
2023-03-18T02:51:29.919Z,78.00
2023-03-18T02:54:02.904Z,77.90
2023-03-18T02:56:29.636Z,77.80
2023-03-18T02:58:57.870Z,78.30
2023-03-18T03:01:24.875Z,78.20
2023-03-18T03:03:51.649Z,78.40
2023-03-18T03:06:18.412Z,79.20
2023-03-18T03:08:45.580Z,79.10
2023-03-18T03:11:12.392Z,79.00
2023-03-18T03:13:42.926Z,79.70
2023-03-18T03:16:10.722Z,79.10
2023-03-18T03:18:37.834Z,79.00
2023-03-18T03:21:05.207Z,78.60
2023-03-18T03:23:32.626Z,78.60
2023-03-18T03:25:59.429Z,78.40
2023-03-18T03:28:27.073Z,78.40
2023-03-18T03:30:54.306Z,78.10
2023-03-18T03:33:21.779Z,78.20
2023-03-18T03:35:48.561Z,78.10
2023-03-18T03:38:15.444Z,78.60
2023-03-18T03:40:42.185Z,79.70
2023-03-18T03:43:11.804Z,79.90
2023-03-18T03:45:38.592Z,79.30
2023-03-18T03:48:05.480Z,78.20
2023-03-18T03:50:32.407Z,79.60
2023-03-18T03:52:59.378Z,79.10
2023-03-18T03:55:26.315Z,78.70
2023-03-18T03:57:53.037Z,77.70
2023-03-18T04:00:21.500Z,78.60
2023-03-18T04:02:49.228Z,78.60
2023-03-18T04:05:17.443Z,78.30
2023-03-18T04:07:44.790Z,78.90
2023-03-18T04:10:12.262Z,79.30
2023-03-18T04:12:39.856Z,78.10
2023-03-18T04:15:07.614Z,77.90
2023-03-18T04:17:34.765Z,78.80
2023-03-18T04:20:02.090Z,79.40
2023-03-18T04:22:29.652Z,78.60
2023-03-18T04:24:56.545Z,79.20
2023-03-18T04:27:23.268Z,78.80
2023-03-18T04:29:50.090Z,80.10
2023-03-18T04:32:17.244Z,78.90
2023-03-18T04:34:44.678Z,79.20
2023-03-18T04:37:11.918Z,78.10
2023-03-18T04:39:39.472Z,78.30
2023-03-18T04:42:06.480Z,78.70
2023-03-18T04:44:33.421Z,78.40
2023-03-18T04:47:00.899Z,78.00
2023-03-18T04:49:27.661Z,77.90
2023-03-18T04:51:54.986Z,78.00
2023-03-18T04:54:21.768Z,77.90
2023-03-18T04:56:48.590Z,78.20
2023-03-18T04:59:15.606Z,77.50
2023-03-18T05:01:42.605Z,78.00
2023-03-18T05:04:10.421Z,78.50
2023-03-18T05:06:37.424Z,77.60
2023-03-18T05:09:05.556Z,78.60
2023-03-18T05:11:33.128Z,78.40
2023-03-18T05:14:00.039Z,78.60
2023-03-18T05:16:26.871Z,79.10
2023-03-18T05:18:53.633Z,78.40
2023-03-18T05:21:20.469Z,77.90
2023-03-18T05:23:47.230Z,78.00
2023-03-18T05:26:14.026Z,78.60
2023-03-18T05:28:40.762Z,78.60
2023-03-18T05:31:07.536Z,77.40
2023-03-18T05:33:34.293Z,77.80
2023-03-18T05:36:01.111Z,77.90
2023-03-18T05:38:27.864Z,78.00
2023-03-18T05:40:55.385Z,78.30
2023-03-18T05:43:22.326Z,79.70
2023-03-18T05:45:50.237Z,79.70
2023-03-18T05:48:17.669Z,78.80
2023-03-18T05:50:44.540Z,79.10
2023-03-18T05:53:11.971Z,79.10
2023-03-18T05:55:40.389Z,77.70
2023-03-18T05:58:07.379Z,78.20
2023-03-18T06:00:34.366Z,77.60
2023-03-18T06:03:01.911Z,78.10
2023-03-18T06:05:29.923Z,78.20
2023-03-18T06:07:57.149Z,79.40
2023-03-18T06:10:25.200Z,79.10
2023-03-18T06:12:52.770Z,79.40
2023-03-18T06:15:21.405Z,79.40
2023-03-18T06:17:48.692Z,78.60
2023-03-18T06:20:15.833Z,78.30
2023-03-18T06:22:43.844Z,79.10
2023-03-18T06:25:10.941Z,79.20
2023-03-18T06:27:37.932Z,79.00
2023-03-18T06:30:05.605Z,78.20
2023-03-18T06:32:33.079Z,78.80
2023-03-18T06:35:00.253Z,78.40
2023-03-18T06:37:27.013Z,78.40
2023-03-18T06:39:54.055Z,78.30
2023-03-18T06:42:21.191Z,78.70
2023-03-18T06:44:51.331Z,78.40
2023-03-18T06:47:19.005Z,78.50
2023-03-18T06:49:47.100Z,78.40
2023-03-18T06:52:14.323Z,78.40
2023-03-18T06:54:41.155Z,79.10
2023-03-18T06:57:08.635Z,78.60
2023-03-18T06:59:35.659Z,79.80
2023-03-18T07:02:03.057Z,80.00
2023-03-18T07:04:31.108Z,79.90
2023-03-18T07:06:57.946Z,80.00
2023-03-18T07:09:24.762Z,79.70
2023-03-18T07:11:51.631Z,79.70
2023-03-18T07:14:18.499Z,79.60
2023-03-18T07:16:45.953Z,79.60
2023-03-18T07:19:12.781Z,79.60
2023-03-18T07:21:41.377Z,79.70
2023-03-18T07:24:08.315Z,79.70
2023-03-18T07:26:35.097Z,80.30
2023-03-18T07:29:01.857Z,80.40
2023-03-18T07:31:30.114Z,80.70
2023-03-18T07:33:57.548Z,80.80
2023-03-18T07:36:25.208Z,80.90
2023-03-18T07:38:51.928Z,81.30
2023-03-18T07:41:18.796Z,81.50
2023-03-18T07:43:45.485Z,81.70
2023-03-18T07:46:12.227Z,81.40
2023-03-18T07:48:39.069Z,81.70
2023-03-18T07:51:05.967Z,81.80
2023-03-18T07:53:33.789Z,81.80
2023-03-18T07:56:00.884Z,82.30
2023-03-18T07:58:27.601Z,82.00
2023-03-18T08:00:54.482Z,82.20
2023-03-18T08:03:21.291Z,82.10
2023-03-18T08:05:48.054Z,81.80
2023-03-18T08:08:15.630Z,81.90
2023-03-18T08:10:42.525Z,81.80
2023-03-18T08:13:09.913Z,81.80
2023-03-18T08:15:36.587Z,81.30
2023-03-18T08:18:03.488Z,81.50
2023-03-18T08:20:30.404Z,81.90
2023-03-18T08:22:57.314Z,81.50
2023-03-18T08:25:24.179Z,81.60
2023-03-18T08:27:52.397Z,81.40
2023-03-18T08:30:19.301Z,81.50
2023-03-18T08:32:46.538Z,82.10
2023-03-18T08:35:13.411Z,80.30
2023-03-18T08:37:40.206Z,80.80
2023-03-18T08:40:07.197Z,81.80
2023-03-18T08:42:33.902Z,81.70
2023-03-18T08:45:00.716Z,81.80
2023-03-18T08:47:27.461Z,82.30
2023-03-18T08:49:54.205Z,82.30
2023-03-18T08:52:22.392Z,82.50
2023-03-18T08:54:49.555Z,82.30
2023-03-18T08:57:16.350Z,82.50
2023-03-18T08:59:43.099Z,82.40
2023-03-18T09:02:18.751Z,81.90
2023-03-18T09:04:45.726Z,81.70
2023-03-18T09:07:13.207Z,82.00
2023-03-18T09:09:43.840Z,81.40
2023-03-18T09:12:12.752Z,81.50
2023-03-18T09:14:40.558Z,81.30
2023-03-18T09:17:07.320Z,80.30
2023-03-18T09:19:34.126Z,80.50
2023-03-18T09:22:00.920Z,80.70
2023-03-18T09:24:27.656Z,81.20
2023-03-18T09:26:54.430Z,81.50
2023-03-18T09:29:24.001Z,81.50
2023-03-18T09:31:50.808Z,80.90
2023-03-18T09:34:17.630Z,79.10
2023-03-18T09:36:51.060Z,77.70
2023-03-18T09:39:18.703Z,75.90
2023-03-18T09:41:48.471Z,76.10
2023-03-18T09:44:26.507Z,75.90
2023-03-18T09:46:57.090Z,77.80
2023-03-18T09:49:33.580Z,77.60
2023-03-18T09:52:09.392Z,77.60
2023-03-18T09:54:39.380Z,77.70
2023-03-18T09:57:10.517Z,79.40
2023-03-18T09:59:43.548Z,80.00
2023-03-18T10:02:33.291Z,79.10
2023-03-18T10:05:03.261Z,76.80
2023-03-18T10:07:33.566Z,76.70
2023-03-18T10:10:09.646Z,77.40
2023-03-18T10:12:38.559Z,79.70
2023-03-18T10:15:05.308Z,79.20
2023-03-18T10:17:35.486Z,77.10
2023-03-18T10:20:04.934Z,78.50
2023-03-18T10:22:50.207Z,78.80
2023-03-18T10:25:18.083Z,79.80
2023-03-18T10:27:53.992Z,77.50
2023-03-18T10:30:39.198Z,78.80
2023-03-18T10:33:12.132Z,80.40
2023-03-18T10:35:59.395Z,78.60
2023-03-18T10:38:36.355Z,77.30
2023-03-18T10:41:12.732Z,78.50
2023-03-18T10:43:39.867Z,78.50
2023-03-18T10:46:09.830Z,79.60
2023-03-18T10:48:38.523Z,78.90
2023-03-18T10:51:28.428Z,78.70
2023-03-18T10:54:02.541Z,77.10
2023-03-18T10:56:29.417Z,76.60
2023-03-18T10:58:57.504Z,77.50
2023-03-18T11:01:28.888Z,79.30
2023-03-18T11:03:59.215Z,79.90
2023-03-18T11:06:45.173Z,80.40
2023-03-18T11:09:15.724Z,78.80
2023-03-18T11:11:43.666Z,73.90
2023-03-18T11:14:21.182Z,75.00
2023-03-18T11:16:50.260Z,76.30
2023-03-18T11:19:26.268Z,76.20
2023-03-18T11:22:02.224Z,77.90
2023-03-18T11:24:44.030Z,77.30
2023-03-18T11:27:14.028Z,77.40
2023-03-18T11:29:41.983Z,75.90
2023-03-18T11:32:24.005Z,74.20
2023-03-18T11:35:11.501Z,74.30
2023-03-18T11:37:40.557Z,72.70
2023-03-18T11:40:18.437Z,75.50
2023-03-18T11:42:46.854Z,75.40
2023-03-18T11:45:23.605Z,74.70
2023-03-18T11:47:50.358Z,72.00
2023-03-18T11:50:20.064Z,71.40
2023-03-18T11:53:07.251Z,71.30
2023-03-18T11:56:12.550Z,72.00
2023-03-18T11:59:12.868Z,74.20
2023-03-18T12:01:45.441Z,75.60
2023-03-18T12:04:47.303Z,72.60
2023-03-18T12:07:26.617Z,71.60
2023-03-18T12:10:13.062Z,70.30
2023-03-18T12:13:01.927Z,73.10
2023-03-18T12:15:53.299Z,73.70
2023-03-18T12:18:26.284Z,73.60
2023-03-18T12:20:54.039Z,75.70
2023-03-18T12:23:33.864Z,74.80
2023-03-18T12:26:06.406Z,74.10
2023-03-18T12:28:36.249Z,74.60
2023-03-18T12:31:22.814Z,73.20
2023-03-18T12:34:01.550Z,73.00
2023-03-18T12:36:31.613Z,73.30
2023-03-18T12:39:05.799Z,72.90
2023-03-18T12:41:37.211Z,72.80
2023-03-18T12:44:13.597Z,72.60
2023-03-18T12:46:47.784Z,73.00
2023-03-18T12:49:22.464Z,73.20
2023-03-18T12:52:07.985Z,73.00
2023-03-18T12:54:39.796Z,73.40
2023-03-18T12:57:13.971Z,73.10
2023-03-18T12:59:44.719Z,73.00
2023-03-18T13:02:18.386Z,73.30
2023-03-18T13:04:50.167Z,72.90
2023-03-18T13:07:21.303Z,71.90
2023-03-18T13:09:51.029Z,70.10
2023-03-18T13:12:28.904Z,71.20
2023-03-18T13:15:23.071Z,69.90
2023-03-18T13:17:51.560Z,70.40
2023-03-18T13:20:26.993Z,70.90
2023-03-18T13:23:02.816Z,70.00
2023-03-18T13:25:43.034Z,70.20
2023-03-18T13:28:09.813Z,69.60
2023-03-18T13:30:45.592Z,69.40
2023-03-18T13:33:30.724Z,70.60
2023-03-18T13:35:57.557Z,72.00
2023-03-18T13:38:29.464Z,73.10
2023-03-18T13:40:58.968Z,75.40
2023-03-18T13:43:26.572Z,74.50
2023-03-18T13:45:53.802Z,75.10
2023-03-18T13:48:22.460Z,74.20
2023-03-18T13:50:50.818Z,72.50
2023-03-18T13:53:38.456Z,73.10
2023-03-18T13:56:06.716Z,71.40
2023-03-18T13:58:35.213Z,71.90
2023-03-18T14:01:15.402Z,72.40
2023-03-18T14:03:42.378Z,73.50
2023-03-18T14:06:09.182Z,71.80
2023-03-18T14:08:39.032Z,72.00
2023-03-18T14:11:27.043Z,73.00
2023-03-18T14:13:53.823Z,72.90
2023-03-18T14:16:40.187Z,73.20
2023-03-18T14:19:32.444Z,73.60
2023-03-18T14:22:28.442Z,73.90
2023-03-18T14:25:22.026Z,73.90
2023-03-18T14:27:51.263Z,74.90
2023-03-18T14:30:40.373Z,74.70
2023-03-18T14:33:13.177Z,74.50
2023-03-18T14:36:10.423Z,72.30
2023-03-18T14:38:41.437Z,70.90
2023-03-18T14:41:16.835Z,70.20
2023-03-18T14:43:47.412Z,69.20
2023-03-18T14:46:19.078Z,70.30
2023-03-18T14:48:50.656Z,69.90
2023-03-18T14:51:19.527Z,69.60
2023-03-18T14:53:51.045Z,70.70
2023-03-18T14:56:18.846Z,71.20
2023-03-18T14:58:53.352Z,71.50
2023-03-18T15:01:23.916Z,71.60
2023-03-18T15:03:52.032Z,72.30
2023-03-18T15:06:20.441Z,71.60
2023-03-18T15:08:56.865Z,74.00
2023-03-18T15:11:24.086Z,75.20
2023-03-18T15:13:54.057Z,74.90
2023-03-18T15:16:23.064Z,73.90
2023-03-18T15:18:55.014Z,74.00
2023-03-18T15:21:28.885Z,71.90
2023-03-18T15:23:57.608Z,75.30
2023-03-18T15:26:31.798Z,74.50
2023-03-18T15:29:00.377Z,75.00
2023-03-18T15:31:28.502Z,74.70
2023-03-18T15:33:56.302Z,73.40
2023-03-18T15:36:23.845Z,71.50
2023-03-18T15:38:50.764Z,73.10
2023-03-18T15:41:21.471Z,73.00
2023-03-18T15:43:50.157Z,74.20
2023-03-18T15:46:17.070Z,76.10
2023-03-18T15:48:54.766Z,76.10
2023-03-18T15:51:25.873Z,75.90
2023-03-18T15:53:53.964Z,76.00
2023-03-18T15:56:26.520Z,76.70
2023-03-18T15:59:05.191Z,75.10
2023-03-18T16:01:37.552Z,74.70
2023-03-18T16:04:10.206Z,72.90
2023-03-18T16:06:38.677Z,74.70
2023-03-18T16:09:16.227Z,72.80
2023-03-18T16:11:44.603Z,71.70
2023-03-18T16:14:15.073Z,70.90
2023-03-18T16:16:42.036Z,70.90
2023-03-18T16:19:29.111Z,70.20
2023-03-18T16:21:56.718Z,70.10
2023-03-18T16:24:23.987Z,69.70
2023-03-18T16:26:52.492Z,70.10
2023-03-18T16:29:24.414Z,69.90
2023-03-18T16:31:51.236Z,70.10
2023-03-18T16:34:22.575Z,69.80
2023-03-18T16:36:50.853Z,69.10
2023-03-18T16:39:21.507Z,71.40
2023-03-18T16:41:48.571Z,73.40
2023-03-18T16:44:16.934Z,74.40
2023-03-18T16:46:47.928Z,75.50
2023-03-18T16:49:36.787Z,76.30
2023-03-18T16:52:03.661Z,77.70
2023-03-18T16:54:32.899Z,80.10
2023-03-18T16:57:02.233Z,78.90
2023-03-18T16:59:33.824Z,81.00
2023-03-18T17:02:00.857Z,80.50
2023-03-18T17:04:29.650Z,80.20
2023-03-18T17:06:57.109Z,81.30
2023-03-18T17:09:25.025Z,81.40
2023-03-18T17:11:53.760Z,80.80
2023-03-18T17:14:27.143Z,81.50
2023-03-18T17:16:54.089Z,81.50
2023-03-18T17:19:23.592Z,81.80
2023-03-18T17:21:51.559Z,81.90
2023-03-18T17:24:18.428Z,83.50
2023-03-18T17:26:45.206Z,82.60
2023-03-18T17:29:20.784Z,82.20
2023-03-18T17:31:47.489Z,83.50
2023-03-18T17:34:14.247Z,82.40
2023-03-18T17:36:41.114Z,83.10
2023-03-18T17:39:07.805Z,82.80
2023-03-18T17:41:34.541Z,83.10
2023-03-18T17:44:01.564Z,84.70
2023-03-18T17:46:28.957Z,84.80
2023-03-18T17:48:56.201Z,85.20
2023-03-18T17:51:24.749Z,84.20
2023-03-18T17:53:56.593Z,85.50
2023-03-18T17:56:23.315Z,85.70
2023-03-18T17:58:51.399Z,84.60
2023-03-18T18:01:20.405Z,83.90
2023-03-18T18:03:47.916Z,84.70
2023-03-18T18:06:19.251Z,83.90
2023-03-18T18:08:47.042Z,85.70
2023-03-18T18:11:16.808Z,84.30
2023-03-18T18:13:43.568Z,86.90
2023-03-18T18:16:10.878Z,86.00
2023-03-18T18:18:37.773Z,84.70
2023-03-18T18:21:06.178Z,86.40
2023-03-18T18:23:37.107Z,86.40
2023-03-18T18:26:07.977Z,85.00
2023-03-18T18:28:36.039Z,85.30
2023-03-18T18:31:03.823Z,85.70
2023-03-18T18:33:31.074Z,87.00
2023-03-18T18:35:58.092Z,84.50
2023-03-18T18:38:25.954Z,85.20
2023-03-18T18:40:53.659Z,86.40
2023-03-18T18:43:21.117Z,85.70
2023-03-18T18:45:49.136Z,84.70
2023-03-18T18:48:17.248Z,86.00
2023-03-18T18:50:44.895Z,85.30
2023-03-18T18:53:17.053Z,86.00
2023-03-18T18:55:44.099Z,85.10
2023-03-18T18:58:14.734Z,86.30
2023-03-18T19:00:41.669Z,85.80
2023-03-18T19:03:13.396Z,85.40
2023-03-18T19:05:40.328Z,85.60
2023-03-18T19:08:15.359Z,84.80
2023-03-18T19:10:42.076Z,85.30
2023-03-18T19:13:13.620Z,85.80
2023-03-18T19:15:41.798Z,86.10
2023-03-18T19:18:19.759Z,85.80
2023-03-18T19:20:47.720Z,86.00
2023-03-18T19:23:19.534Z,85.30
2023-03-18T19:25:46.652Z,85.80
2023-03-18T19:28:16.212Z,86.00
2023-03-18T19:30:42.907Z,84.70
2023-03-18T19:33:17.013Z,84.10
2023-03-18T19:35:44.371Z,85.70
2023-03-18T19:38:15.330Z,86.50
2023-03-18T19:40:42.832Z,85.80
2023-03-18T19:43:14.648Z,87.30
2023-03-18T19:45:42.296Z,86.20
2023-03-18T19:48:11.403Z,85.70
2023-03-18T19:50:38.114Z,87.00
2023-03-18T19:53:09.841Z,85.80
2023-03-18T19:55:36.579Z,86.80
2023-03-18T19:58:03.364Z,85.70
2023-03-18T20:00:30.836Z,85.60
2023-03-18T20:02:58.457Z,82.90
2023-03-18T20:05:25.999Z,86.60
2023-03-18T20:07:52.766Z,86.30
2023-03-18T20:10:19.823Z,85.90
2023-03-18T20:12:47.948Z,87.70
2023-03-18T20:15:16.609Z,86.50
2023-03-18T20:17:44.726Z,85.40
2023-03-18T20:20:13.382Z,86.00
2023-03-18T20:22:42.024Z,86.70
2023-03-18T20:25:15.752Z,86.10
2023-03-18T20:27:42.496Z,85.10
2023-03-18T20:30:35.822Z,85.30
2023-03-18T20:33:05.768Z,85.40
2023-03-18T20:35:33.998Z,84.80
2023-03-18T20:38:05.161Z,85.30
2023-03-18T20:40:32.173Z,85.90
2023-03-18T20:42:58.981Z,86.00
2023-03-18T20:45:26.948Z,86.60
2023-03-18T20:47:53.678Z,85.20
2023-03-18T20:50:22.818Z,86.00
2023-03-18T20:52:49.805Z,85.50
2023-03-18T20:55:19.340Z,86.90
2023-03-18T20:57:46.497Z,86.60
2023-03-18T21:00:19.059Z,86.50
2023-03-18T21:02:46.901Z,84.60
2023-03-18T21:05:14.236Z,86.60
2023-03-18T21:07:41.774Z,86.30
2023-03-18T21:10:09.307Z,86.70
2023-03-18T21:12:36.505Z,86.60
2023-03-18T21:15:03.853Z,86.20
2023-03-18T21:17:30.694Z,85.00
2023-03-18T21:20:05.060Z,85.30
2023-03-18T21:22:38.744Z,85.40
2023-03-18T21:25:08.857Z,83.40
2023-03-18T21:27:36.878Z,83.90
2023-03-18T21:30:03.955Z,84.50
2023-03-18T21:32:33.833Z,86.00
2023-03-18T21:35:00.730Z,86.60
2023-03-18T21:37:27.600Z,87.60
2023-03-18T21:39:54.446Z,86.80
2023-03-18T21:42:25.073Z,84.60
2023-03-18T21:44:52.268Z,85.40
2023-03-18T21:47:20.974Z,84.10
2023-03-18T21:49:48.615Z,84.50
2023-03-18T21:52:21.403Z,84.80
2023-03-18T21:54:48.140Z,86.90
2023-03-18T21:57:16.120Z,86.00
2023-03-18T21:59:43.308Z,84.00
2023-03-18T22:02:21.343Z,85.30
2023-03-18T22:04:48.213Z,86.30
2023-03-18T22:07:15.394Z,87.60
2023-03-18T22:09:44.565Z,87.30
2023-03-18T22:12:16.186Z,87.30
2023-03-18T22:14:43.018Z,86.80
2023-03-18T22:17:18.047Z,86.70
2023-03-18T22:19:44.778Z,86.60
2023-03-18T22:22:15.784Z,86.80
2023-03-18T22:24:42.945Z,85.90
2023-03-18T22:27:25.878Z,85.60
2023-03-18T22:29:53.569Z,86.00
2023-03-18T22:32:30.627Z,84.80
2023-03-18T22:34:57.473Z,84.60
2023-03-18T22:37:25.445Z,84.10
2023-03-18T22:39:52.474Z,86.60
2023-03-18T22:42:21.368Z,84.30
2023-03-18T22:44:48.529Z,86.30
2023-03-18T22:47:16.235Z,87.10
2023-03-18T22:49:43.032Z,87.60
2023-03-18T22:52:28.280Z,87.40
2023-03-18T22:54:57.035Z,87.40
2023-03-18T22:57:26.345Z,87.40
2023-03-18T22:59:53.662Z,87.80
2023-03-18T23:02:21.709Z,85.90
2023-03-18T23:04:49.434Z,85.70
2023-03-18T23:07:31.205Z,87.70
2023-03-18T23:09:59.150Z,87.80
2023-03-18T23:12:26.544Z,87.60
2023-03-18T23:14:53.482Z,87.90
2023-03-18T23:17:21.939Z,87.00
2023-03-18T23:19:49.300Z,87.50
2023-03-18T23:22:19.158Z,85.80
2023-03-18T23:24:45.930Z,87.00
2023-03-18T23:27:12.632Z,87.80
2023-03-18T23:29:39.368Z,85.60
2023-03-18T23:32:06.242Z,87.70
2023-03-18T23:34:32.927Z,88.40
2023-03-18T23:36:59.682Z,87.80
2023-03-18T23:39:26.462Z,87.80
2023-03-18T23:41:53.178Z,87.10
2023-03-18T23:44:20.107Z,86.90
2023-03-18T23:46:46.865Z,88.80
2023-03-18T23:49:13.756Z,87.50
2023-03-18T23:51:40.506Z,88.80
2023-03-18T23:54:08.199Z,87.70
2023-03-18T23:56:35.279Z,86.80
2023-03-18T23:59:02.347Z,87.10
